Time;durP1;ratioP1;P1;durP2;ratioP2;P2;SDS_P1;SDS_P2;PMS_P1;PMS_P2;Temp;Humidity;BMP_temperature;BMP_pressure;BME280_temperature;BME280_humidity;BME280_pressure;Samples;Min_cycle;Max_cycle;Signal;HPM_P1;HPM_P2
2022/03/03 00:01:31;;;;;;;20.63;14.23;;;0.50;94.20;;;;;;6242652;23;20668;-71
2022/03/03 00:04:19;;;;;;;21.80;16.13;;;0.50;94.60;;;;;;6241777;22;20204;-72
2022/03/03 00:07:06;;;;;;;20.55;14.75;;;0.50;94.40;;;;;;6241429;23;20170;-71
2022/03/03 00:09:52;;;;;;;22.75;15.25;;;0.50;94.40;;;;;;6242353;23;20171;-71
2022/03/03 00:12:38;;;;;;;22.02;15.48;;;0.30;94.80;;;;;;6242352;23;20645;-71
2022/03/03 00:15:24;;;;;;;24.13;15.32;;;0.30;95.20;;;;;;6239300;23;20629;-71
2022/03/03 00:18:09;;;;;;;24.23;16.10;;;0.40;95.50;;;;;;6242187;23;20669;-71
2022/03/03 00:20:56;;;;;;;23.45;17.63;;;0.40;95.30;;;;;;6243071;23;20792;-71
2022/03/03 00:23:42;;;;;;;29.20;19.60;;;0.40;95.30;;;;;;6241470;22;20198;-72
2022/03/03 00:26:27;;;;;;;31.63;19.70;;;0.40;95.70;;;;;;6240697;23;20168;-71
2022/03/03 00:29:13;;;;;;;28.05;19.35;;;0.30;95.70;;;;;;6241136;23;20213;-71
2022/03/03 00:31:59;;;;;;;29.65;20.20;;;0.50;95.60;;;;;;6241244;23;20310;-71
2022/03/03 00:34:45;;;;;;;28.38;20.38;;;0.50;95.10;;;;;;6238744;22;20293;-71
2022/03/03 00:37:32;;;;;;;28.25;21.05;;;0.40;95.00;;;;;;6241959;23;20254;-71
2022/03/03 00:40:18;;;;;;;29.10;19.38;;;0.30;95.30;;;;;;6242140;23;20503;-71
2022/03/03 00:43:06;;;;;;;30.50;19.50;;;0.50;95.30;;;;;;6240381;22;20208;-71
2022/03/03 00:45:51;;;;;;;30.30;18.45;;;0.60;94.80;;;;;;6239443;23;20622;-71
2022/03/03 00:48:37;;;;;;;31.85;19.77;;;0.70;94.50;;;;;;6241297;23;20247;-71
2022/03/03 00:51:23;;;;;;;28.20;19.25;;;0.70;94.30;;;;;;6241890;23;20500;-71
2022/03/03 00:54:10;;;;;;;30.15;20.17;;;0.70;94.30;;;;;;6239265;22;20229;-71
2022/03/03 00:56:56;;;;;;;28.20;19.83;;;0.60;94.20;;;;;;6241503;23;20232;-72
2022/03/03 00:59:42;;;;;;;27.98;19.40;;;0.60;94.20;;;;;;6241953;23;20169;-71
2022/03/03 01:02:27;;;;;;;27.33;19.45;;;0.60;94.20;;;;;;6241352;23;20170;-72
2022/03/03 01:05:13;;;;;;;33.08;19.33;;;0.50;94.40;;;;;;6239261;23;20270;-71
2022/03/03 01:07:59;;;;;;;27.20;19.52;;;0.30;94.60;;;;;;6242200;23;20217;-71
2022/03/03 01:10:46;;;;;;;34.38;19.40;;;0.30;94.70;;;;;;6241583;23;20487;-71
2022/03/03 01:13:32;;;;;;;26.10;18.10;;;0.20;95.00;;;;;;6240237;22;20210;-71
2022/03/03 01:16:17;;;;;;;25.00;18.40;;;0.20;95.20;;;;;;6242513;23;20167;-71
2022/03/03 01:19:04;;;;;;;31.00;19.98;;;0.30;95.00;;;;;;6242537;23;20530;-71
2022/03/03 01:21:50;;;;;;;26.02;17.92;;;0.40;94.90;;;;;;6242798;23;20168;-71
2022/03/03 01:24:36;;;;;;;27.65;18.88;;;0.50;94.60;;;;;;6240616;22;20317;-71
2022/03/03 01:27:23;;;;;;;29.27;17.65;;;0.50;94.30;;;;;;6241846;23;20165;-71
2022/03/03 01:30:10;;;;;;;23.88;17.60;;;0.40;94.20;;;;;;6243044;23;20617;-71
2022/03/03 01:32:55;;;;;;;31.63;17.38;;;0.10;94.80;;;;;;6242126;23;20223;-71
2022/03/03 01:35:41;;;;;;;27.90;17.35;;;0.10;95.20;;;;;;6240155;23;20237;-71
2022/03/03 01:38:27;;;;;;;25.92;18.48;;;0.10;95.50;;;;;;6243003;23;20246;-71
2022/03/03 01:41:12;;;;;;;26.98;18.23;;;0.10;95.00;;;;;;6243713;23;20168;-71
2022/03/03 01:43:59;;;;;;;28.58;17.30;;;0.00;95.10;;;;;;6240475;22;20692;-71
2022/03/03 01:46:49;;;;;;;26.05;18.02;;;-0.10;95.40;;;;;;6242361;23;20223;-71
2022/03/03 01:49:35;;;;;;;24.52;17.80;;;-0.20;95.80;;;;;;6243080;23;20221;-71
2022/03/03 01:52:21;;;;;;;25.92;17.75;;;-0.20;96.00;;;;;;6244398;23;20170;-71
2022/03/03 01:55:08;;;;;;;26.35;18.48;;;-0.20;96.90;;;;;;6241970;23;20278;-71
2022/03/03 02:00:25;;;;;;;27.83;19.35;;;-0.30;97.00;;;;;;6243065;23;20287;-70
2022/03/03 02:03:10;;;;;;;30.10;20.23;;;-0.20;97.50;;;;;;6241228;23;20719;-71
2022/03/03 02:05:56;;;;;;;28.45;18.50;;;-0.20;97.50;;;;;;6243261;23;20316;-70
2022/03/03 02:08:42;;;;;;;31.77;18.70;;;-0.30;98.20;;;;;;6244354;23;20273;-70
2022/03/03 02:11:30;;;;;;;28.77;18.73;;;-0.30;98.40;;;;;;6244239;23;20174;-70
2022/03/03 02:14:16;;;;;;;28.98;19.75;;;-0.30;98.10;;;;;;6241794;23;20301;-70
2022/03/03 02:17:03;;;;;;;29.10;20.02;;;-0.40;98.90;;;;;;6243862;23;20165;-70
2022/03/03 02:19:49;;;;;;;24.15;17.50;;;-0.30;99.10;;;;;;6243799;23;20229;-70
2022/03/03 02:22:37;;;;;;;23.65;17.35;;;-0.10;99.10;;;;;;6242154;23;20176;-71
2022/03/03 02:25:24;;;;;;;29.60;18.35;;;0.00;98.60;;;;;;6242841;23;20164;-70
2022/03/03 02:28:10;;;;;;;27.48;17.38;;;0.00;97.80;;;;;;6243860;23;20209;-71
2022/03/03 02:30:56;;;;;;;23.10;17.05;;;-0.10;97.90;;;;;;6243758;23;20168;-70
2022/03/03 02:33:42;;;;;;;27.30;17.60;;;-0.20;98.30;;;;;;6241112;23;20189;-71
2022/03/03 02:36:29;;;;;;;26.13;18.70;;;-0.30;98.90;;;;;;6243919;23;20170;-70
2022/03/03 02:39:16;;;;;;;27.95;18.20;;;-0.10;98.70;;;;;;6244157;23;20247;-70
2022/03/03 02:42:02;;;;;;;23.42;17.60;;;-0.20;98.20;;;;;;6242959;23;20177;-71
2022/03/03 02:44:47;;;;;;;24.35;18.17;;;-0.30;98.60;;;;;;6242410;23;20169;-70
2022/03/03 02:47:33;;;;;;;27.30;18.80;;;-0.40;98.90;;;;;;6244173;23;20166;-70
2022/03/03 02:50:21;;;;;;;27.35;17.73;;;-0.50;99.40;;;;;;6244706;23;20240;-71
2022/03/03 02:53:06;;;;;;;27.50;18.60;;;-0.50;99.60;;;;;;6241029;23;20194;-71
2022/03/03 02:55:54;;;;;;;28.70;19.75;;;-0.50;99.80;;;;;;6242854;23;20632;-70
2022/03/03 02:58:39;;;;;;;26.40;18.73;;;-0.50;99.90;;;;;;6242953;23;20687;-71
2022/03/03 03:01:25;;;;;;;25.70;18.48;;;-0.50;99.90;;;;;;6243714;23;20171;-71
2022/03/03 03:04:11;;;;;;;26.38;18.67;;;-0.60;99.90;;;;;;6241574;23;20162;-71
2022/03/03 03:06:56;;;;;;;27.88;19.60;;;-0.60;99.90;;;;;;6243576;23;20244;-69
2022/03/03 03:09:42;;;;;;;32.25;20.98;;;-0.40;99.90;;;;;;6243622;23;20532;-70
2022/03/03 03:12:29;;;;;;;27.42;20.10;;;-0.40;99.90;;;;;;6242667;23;20165;-70
2022/03/03 03:15:15;;;;;;;27.13;18.27;;;-0.40;99.90;;;;;;6243789;23;20173;-70
2022/03/03 03:18:09;;;;;;;30.38;19.45;;;-0.30;99.70;;;;;;6243922;23;20170;-70
2022/03/03 03:20:55;;;;;;;32.50;21.02;;;-0.30;99.40;;;;;;6243690;23;20165;-69
2022/03/03 03:23:40;;;;;;;29.25;18.15;;;-0.30;99.50;;;;;;6241326;23;20668;-69
2022/03/03 03:26:26;;;;;;;29.35;18.98;;;-0.30;99.50;;;;;;6243698;23;20164;-69
2022/03/03 03:29:13;;;;;;;29.00;20.83;;;-0.50;99.60;;;;;;6244406;23;20204;-70
2022/03/03 03:31:58;;;;;;;30.15;19.60;;;-0.50;99.70;;;;;;6240424;23;20627;-69
2022/03/03 03:34:44;;;;;;;25.15;18.70;;;-0.50;99.90;;;;;;6244046;23;20262;-69
2022/03/03 03:37:30;;;;;;;25.08;18.23;;;-0.50;99.70;;;;;;6243827;23;20170;-69
2022/03/03 03:40:16;;;;;;;29.92;18.55;;;-0.60;99.90;;;;;;6244288;23;20169;-69
2022/03/03 03:43:02;;;;;;;27.42;19.85;;;-0.50;99.80;;;;;;6241748;23;20250;-69
2022/03/03 03:45:49;;;;;;;30.65;19.63;;;-0.50;99.50;;;;;;6243537;23;20171;-69
2022/03/03 03:48:34;;;;;;;29.20;20.15;;;-0.50;99.60;;;;;;6243926;23;20204;-69
2022/03/03 03:51:20;;;;;;;25.75;18.52;;;-0.50;99.40;;;;;;6241880;23;20301;-69
2022/03/03 03:54:06;;;;;;;24.70;18.10;;;-0.50;99.80;;;;;;6243718;23;20266;-68
2022/03/03 03:56:52;;;;;;;25.95;18.60;;;-0.60;99.70;;;;;;6243218;23;20244;-71
2022/03/03 03:59:37;;;;;;;25.73;18.95;;;-0.60;99.50;;;;;;6242587;23;20535;-70
2022/03/03 04:02:24;;;;;;;24.17;17.83;;;-0.60;99.60;;;;;;6240586;23;20166;-71
2022/03/03 04:05:11;;;;;;;26.17;18.50;;;-0.50;99.50;;;;;;6242283;23;20213;-71
2022/03/03 04:07:56;;;;;;;27.27;19.02;;;-0.60;99.30;;;;;;6242254;23;20168;-70
2022/03/03 04:10:42;;;;;;;24.15;17.15;;;-0.60;99.80;;;;;;6242903;23;20190;-70
2022/03/03 04:13:28;;;;;;;23.20;17.92;;;-0.50;99.60;;;;;;6242647;23;20265;-70
2022/03/03 04:16:14;;;;;;;25.10;18.27;;;-0.40;99.20;;;;;;6242296;23;20497;-70
2022/03/03 04:19:01;;;;;;;26.42;17.80;;;-0.30;98.90;;;;;;6242416;23;20542;-69
2022/03/03 04:21:46;;;;;;;27.67;17.75;;;-0.30;98.60;;;;;;6239771;23;20170;-70
2022/03/03 04:24:32;;;;;;;26.55;18.30;;;-0.50;98.60;;;;;;6242288;23;20249;-70
2022/03/03 04:27:18;;;;;;;26.80;17.73;;;-0.50;99.30;;;;;;6243737;23;20219;-70
2022/03/03 04:30:05;;;;;;;22.27;17.50;;;-0.70;99.60;;;;;;6241196;23;20205;-71
2022/03/03 04:32:51;;;;;;;30.10;19.00;;;-0.80;99.90;;;;;;6239854;23;20189;-70
2022/03/03 04:35:38;;;;;;;27.50;18.60;;;-0.80;99.90;;;;;;6242286;23;20547;-69
2022/03/03 04:38:24;;;;;;;28.20;17.88;;;-0.90;99.90;;;;;;6243361;23;20204;-70
2022/03/03 04:41:10;;;;;;;23.73;17.50;;;-0.90;99.90;;;;;;6240862;23;20680;-70
2022/03/03 04:43:55;;;;;;;28.10;20.27;;;-0.80;99.90;;;;;;6242806;23;20162;-70
2022/03/03 04:46:41;;;;;;;27.02;17.92;;;-0.80;99.90;;;;;;6242764;23;20276;-70
2022/03/03 04:49:27;;;;;;;29.30;18.67;;;-0.60;99.90;;;;;;6242680;23;20551;-70
2022/03/03 04:52:14;;;;;;;25.48;17.85;;;-0.60;99.40;;;;;;6242588;23;20248;-70
2022/03/03 04:54:59;;;;;;;28.13;18.95;;;-0.70;99.20;;;;;;6241239;23;20188;-70
2022/03/03 04:57:45;;;;;;;25.10;17.90;;;-0.80;99.40;;;;;;6242210;23;20683;-69
2022/03/03 05:00:30;;;;;;;25.67;18.48;;;-0.80;99.10;;;;;;6240081;23;20248;-70
2022/03/03 05:03:17;;;;;;;29.17;19.38;;;-0.80;99.10;;;;;;6241840;23;20712;-70
2022/03/03 05:06:02;;;;;;;29.60;19.23;;;-0.80;99.10;;;;;;6242634;23;20367;-70
2022/03/03 05:08:49;;;;;;;28.20;19.52;;;-0.80;99.70;;;;;;6242182;23;20208;-70
2022/03/03 05:11:35;;;;;;;31.05;19.13;;;-0.90;99.40;;;;;;6239504;23;20165;-70
2022/03/03 05:14:20;;;;;;;27.83;19.10;;;-0.90;99.40;;;;;;6243331;23;20184;-70
2022/03/03 05:17:06;;;;;;;27.00;17.42;;;-0.90;99.70;;;;;;6243975;23;20215;-70
2022/03/03 05:19:52;;;;;;;24.90;17.73;;;-1.10;99.80;;;;;;6243310;23;20223;-70
2022/03/03 05:22:37;;;;;;;30.13;20.25;;;-1.20;99.90;;;;;;6245336;23;20176;-70
2022/03/03 05:25:24;;;;;;;32.28;21.40;;;-1.20;99.90;;;;;;6243732;23;20250;-71
2022/03/03 05:28:10;;;;;;;25.75;19.00;;;-1.30;99.90;;;;;;6244251;23;20287;-70
2022/03/03 05:30:56;;;;;;;28.30;18.13;;;-1.30;99.90;;;;;;6239885;23;20247;-70
2022/03/03 05:33:41;;;;;;;28.17;21.38;;;-1.40;99.90;;;;;;6243653;23;20663;-70
2022/03/03 05:36:27;;;;;;;27.35;18.48;;;-1.30;99.90;;;;;;6244466;23;20167;-70
2022/03/03 05:39:15;;;;;;;30.65;19.58;;;-1.40;99.90;;;;;;6242705;23;20271;-71
2022/03/03 05:42:02;;;;;;;29.80;19.33;;;-1.20;99.90;;;;;;6244015;23;20165;-70
2022/03/03 05:44:48;;;;;;;26.58;19.17;;;-1.20;99.90;;;;;;6243300;23;20166;-70
2022/03/03 05:47:35;;;;;;;27.35;18.38;;;-1.00;99.90;;;;;;6244393;23;20211;-70
2022/03/03 05:50:20;;;;;;;30.48;19.85;;;-0.90;99.90;;;;;;6241877;23;20169;-70
2022/03/03 05:53:06;;;;;;;28.48;18.77;;;-0.80;99.90;;;;;;6244778;23;20271;-70
2022/03/03 05:55:54;;;;;;;31.17;19.13;;;-0.90;99.90;;;;;;6243604;23;20626;-70
2022/03/03 05:58:46;;;;;;;22.58;17.50;;;-1.10;99.90;;;;;;6243097;23;20212;-70
2022/03/03 06:01:32;;;;;;;32.40;19.83;;;-1.00;99.90;;;;;;6242669;23;20192;-71
2022/03/03 06:04:18;;;;;;;25.10;19.33;;;-0.90;99.90;;;;;;6243394;23;20632;-70
2022/03/03 06:07:07;;;;;;;25.33;18.60;;;-0.90;99.90;;;;;;6243539;23;20173;-69
2022/03/03 06:09:55;;;;;;;28.67;19.35;;;-0.90;99.90;;;;;;6240912;23;20213;-70
2022/03/03 06:12:47;;;;;;;28.58;19.30;;;-0.80;99.90;;;;;;6245034;23;20712;-70
2022/03/03 06:15:37;;;;;;;27.95;19.35;;;-0.80;99.90;;;;;;6243083;23;20194;-70
2022/03/03 06:18:28;;;;;;;31.40;19.80;;;-0.80;99.90;;;;;;6242441;23;20633;-70
2022/03/03 06:21:13;;;;;;;31.08;19.70;;;-0.90;99.90;;;;;;6243461;23;20188;-70
2022/03/03 06:23:59;;;;;;;28.65;18.95;;;-1.00;99.90;;;;;;6242641;23;20217;-70
2022/03/03 06:26:45;;;;;;;29.40;19.27;;;-1.10;99.90;;;;;;6243188;23;20177;-70
2022/03/03 06:29:31;;;;;;;31.52;20.70;;;-1.30;99.90;;;;;;6239852;23;20537;-70
2022/03/03 06:32:18;;;;;;;32.40;19.95;;;-1.30;99.90;;;;;;6241987;23;20165;-70
2022/03/03 06:35:05;;;;;;;32.40;21.85;;;-1.20;99.90;;;;;;6242566;23;20219;-70
2022/03/03 06:37:50;;;;;;;32.30;21.17;;;-1.30;99.90;;;;;;6243118;23;20180;-70
2022/03/03 06:40:36;;;;;;;42.50;23.88;;;-1.20;99.90;;;;;;6241896;23;20169;-70
2022/03/03 06:43:22;;;;;;;28.08;20.40;;;-1.20;99.90;;;;;;6243412;23;20554;-72
2022/03/03 06:46:09;;;;;;;30.20;21.90;;;-1.00;99.90;;;;;;6243480;23;20176;-71
2022/03/03 06:48:56;;;;;;;33.05;23.25;;;-0.80;99.90;;;;;;6240607;23;20722;-71
2022/03/03 06:51:43;;;;;;;28.48;21.13;;;-0.60;99.90;;;;;;6244289;23;20170;-71
2022/03/03 06:54:34;;;;;;;31.42;21.23;;;-0.50;99.90;;;;;;6243126;23;20193;-71
2022/03/03 06:57:21;;;;;;;28.55;21.60;;;-0.40;99.90;;;;;;6243604;23;20216;-72
2022/03/03 07:00:09;;;;;;;31.50;20.65;;;-0.40;99.90;;;;;;6242230;23;20275;-71
2022/03/03 07:02:55;;;;;;;29.63;21.65;;;-0.40;99.90;;;;;;6242629;23;20165;-71
2022/03/03 07:05:42;;;;;;;31.42;21.42;;;-0.30;99.90;;;;;;6244218;23;20560;-71
2022/03/03 07:08:28;;;;;;;36.80;21.67;;;-0.20;99.90;;;;;;6241517;23;20216;-71
2022/03/03 07:11:16;;;;;;;33.92;22.38;;;-0.10;99.90;;;;;;6243331;23;20197;-70
2022/03/03 07:14:02;;;;;;;31.58;21.45;;;-0.10;99.90;;;;;;6242760;23;20217;-71
2022/03/03 07:17:00;;;;;;;29.30;19.90;;;0.00;99.90;;;;;;6242532;23;20236;-71
2022/03/03 07:19:55;;;;;;;30.83;19.52;;;0.10;99.90;;;;;;6241553;23;20201;-71
2022/03/03 07:22:59;;;;;;;32.97;20.58;;;0.30;99.90;;;;;;6243457;23;20173;-71
2022/03/03 07:25:48;;;;;;;30.75;19.67;;;0.40;99.90;;;;;;6242946;23;20511;-72
2022/03/03 07:28:35;;;;;;;32.33;19.30;;;0.50;99.90;;;;;;6241030;23;20534;-71
2022/03/03 07:31:24;;;;;;;30.85;20.25;;;0.60;99.90;;;;;;6243414;23;20665;-70
2022/03/03 07:34:11;;;;;;;28.02;20.15;;;0.70;99.90;;;;;;6240751;23;20248;-71
2022/03/03 07:36:58;;;;;;;31.60;21.17;;;0.70;99.90;;;;;;6241674;23;20168;-71
2022/03/03 07:39:46;;;;;;;31.23;20.30;;;0.70;99.90;;;;;;6242622;23;20205;-71
2022/03/03 07:42:32;;;;;;;28.13;20.80;;;0.60;99.90;;;;;;6243174;23;20213;-71
2022/03/03 07:45:18;;;;;;;31.45;20.80;;;0.70;99.90;;;;;;6242632;23;20205;-71
2022/03/03 07:48:03;;;;;;;32.13;20.90;;;0.70;99.90;;;;;;6240439;23;20246;-70
2022/03/03 07:50:49;;;;;;;38.90;22.83;;;0.90;99.90;;;;;;6242339;23;20505;-71
2022/03/03 07:53:35;;;;;;;32.30;21.67;;;1.00;99.90;;;;;;6243212;23;20338;-71
2022/03/03 07:56:28;;;;;;;41.03;23.80;;;1.20;99.90;;;;;;6242665;23;20194;-71
2022/03/03 07:59:19;;;;;;;37.58;22.58;;;1.30;99.90;;;;;;6242061;23;20539;-71
2022/03/03 08:02:06;;;;;;;32.65;23.02;;;1.50;99.90;;;;;;6241043;23;20170;-71
2022/03/03 08:04:52;;;;;;;35.38;21.58;;;1.60;99.90;;;;;;6242338;23;20228;-71
2022/03/03 08:07:43;;;;;;;37.60;23.20;;;1.80;99.90;;;;;;6240686;23;20213;-70
2022/03/03 08:10:30;;;;;;;33.90;23.20;;;1.90;99.90;;;;;;6243339;23;20716;-71
2022/03/03 08:13:18;;;;;;;34.30;23.00;;;2.00;99.90;;;;;;6242159;23;20238;-71
2022/03/03 08:16:04;;;;;;;36.50;23.90;;;2.10;99.90;;;;;;6242226;23;20190;-71
2022/03/03 08:18:50;;;;;;;33.72;22.48;;;2.30;99.90;;;;;;6241195;23;20348;-71
2022/03/03 08:21:36;;;;;;;33.88;22.83;;;2.50;99.90;;;;;;6243073;23;20170;-71
2022/03/03 08:24:23;;;;;;;41.00;21.90;;;2.50;99.90;;;;;;6242556;23;20171;-71
2022/03/03 08:27:09;;;;;;;32.40;19.52;;;2.60;99.90;;;;;;6240424;23;20257;-70
2022/03/03 08:29:58;;;;;;;33.55;21.33;;;2.80;99.90;;;;;;6241459;23;20206;-71
2022/03/03 08:32:51;;;;;;;31.92;21.63;;;2.80;99.90;;;;;;6241251;23;20171;-71
2022/03/03 08:35:40;;;;;;;33.60;22.33;;;3.00;99.90;;;;;;6242453;23;20290;-71
2022/03/03 08:38:33;;;;;;;33.65;21.42;;;3.10;99.90;;;;;;6241697;23;20207;-71
2022/03/03 08:41:21;;;;;;;24.67;18.42;;;3.30;99.90;;;;;;6242585;23;20170;-71
2022/03/03 08:44:09;;;;;;;32.23;21.13;;;3.50;99.90;;;;;;6241788;23;20266;-72
2022/03/03 08:46:58;;;;;;;33.57;21.23;;;3.50;98.40;;;;;;6239668;23;20449;-72
2022/03/03 08:49:46;;;;;;;32.03;19.57;;;3.70;98.00;;;;;;6242461;23;20960;-71
2022/03/03 08:52:32;;;;;;;27.43;17.80;;;3.80;97.20;;;;;;6242487;23;20410;-71
2022/03/03 08:55:17;;;;;;;37.53;19.70;;;4.00;97.20;;;;;;6242192;23;20417;-71
2022/03/03 08:58:04;;;;;;;27.77;17.80;;;4.10;96.80;;;;;;6240030;23;20859;-72
2022/03/03 09:00:50;;;;;;;31.83;19.40;;;4.30;95.60;;;;;;6242077;23;20426;-71
2022/03/03 09:03:39;;;;;;;30.42;19.90;;;4.40;95.10;;;;;;6241764;23;20756;-71
2022/03/03 09:06:25;;;;;;;30.70;18.50;;;4.60;93.60;;;;;;6240408;23;20499;-70
2022/03/03 09:09:11;;;;;;;32.90;18.73;;;4.70;93.60;;;;;;6241707;23;20433;-71
2022/03/03 09:11:57;;;;;;;31.93;18.90;;;4.80;93.20;;;;;;6241892;23;20214;-72
2022/03/03 09:14:42;;;;;;;24.57;17.30;;;5.00;92.70;;;;;;6241430;23;20449;-70
2022/03/03 09:17:28;;;;;;;27.70;17.70;;;5.20;92.70;;;;;;6240270;23;20375;-71
2022/03/03 09:20:16;;;;;;;24.07;16.63;;;5.40;92.10;;;;;;6242893;23;20384;-72
2022/03/03 09:23:02;;;;;;;26.87;17.80;;;5.50;91.80;;;;;;6243466;23;20393;-71
2022/03/03 09:25:47;;;;;;;26.27;17.53;;;5.70;89.60;;;;;;6240096;23;20353;-71
2022/03/03 09:28:33;;;;;;;25.73;17.57;;;6.00;83.20;;;;;;6242214;23;20440;-71
2022/03/03 09:31:18;;;;;;;29.37;17.23;;;6.20;82.70;;;;;;6242183;23;20379;-71
2022/03/03 09:34:04;;;;;;;21.83;15.90;;;6.30;79.70;;;;;;6240592;23;20374;-71
2022/03/03 09:36:51;;;;;;;22.93;15.80;;;6.50;77.90;;;;;;6239804;23;20426;-71
2022/03/03 09:39:37;;;;;;;23.60;16.27;;;6.80;76.10;;;;;;6242266;23;20538;-71
2022/03/03 09:42:22;;;;;;;25.40;15.53;;;7.00;72.00;;;;;;6242342;23;20422;-71
2022/03/03 09:45:10;;;;;;;25.23;16.60;;;7.20;68.70;;;;;;6239870;23;20529;-71
2022/03/03 09:47:57;;;;;;;25.90;15.23;;;7.40;66.10;;;;;;6241762;23;20479;-71
2022/03/03 09:50:42;;;;;;;34.80;17.13;;;7.50;62.20;;;;;;6242376;23;20829;-72
2022/03/03 09:53:29;;;;;;;25.83;15.70;;;7.70;64.40;;;;;;6241944;23;20388;-71
2022/03/03 09:56:15;;;;;;;21.03;14.47;;;7.90;62.90;;;;;;6239836;23;20436;-71
2022/03/03 09:59:00;;;;;;;27.10;15.10;;;8.00;59.70;;;;;;6242015;23;20530;-71
2022/03/03 10:01:47;;;;;;;22.83;15.03;;;8.20;61.20;;;;;;6243343;23;20350;-72
2022/03/03 10:04:33;;;;;;;22.77;15.77;;;8.30;59.90;;;;;;6241594;23;20803;-72
2022/03/03 10:07:24;;;;;;;24.50;14.60;;;8.50;59.30;;;;;;6242443;23;20511;-71
2022/03/03 10:10:17;;;;;;;23.10;14.20;;;8.60;53.90;;;;;;6244652;23;20760;-71
2022/03/03 10:13:03;;;;;;;22.23;14.97;;;8.80;54.70;;;;;;6240365;23;20365;-70
2022/03/03 10:15:53;;;;;;;19.67;13.17;;;8.90;51.70;;;;;;6244475;23;20927;-70
2022/03/03 10:18:38;;;;;;;20.10;14.30;;;9.20;50.20;;;;;;6241467;23;20386;-70
2022/03/03 10:21:27;;;;;;;19.43;13.53;;;9.40;47.60;;;;;;6243564;23;20422;-71
2022/03/03 10:24:17;;;;;;;18.43;12.60;;;9.50;47.00;;;;;;6242938;23;20391;-69
2022/03/03 10:27:06;;;;;;;18.60;14.30;;;9.60;43.80;;;;;;6241588;23;20470;-69
2022/03/03 10:29:52;;;;;;;21.37;13.43;;;9.80;44.10;;;;;;6242886;23;20884;-70
2022/03/03 10:32:39;;;;;;;21.77;13.27;;;10.00;40.90;;;;;;6242003;23;20351;-69
2022/03/03 10:35:25;;;;;;;17.53;11.97;;;10.30;40.00;;;;;;6241622;23;20392;-70
2022/03/03 10:38:10;;;;;;;16.93;12.90;;;10.50;39.30;;;;;;6240934;23;20417;-70
2022/03/03 10:40:56;;;;;;;18.03;12.50;;;10.70;36.00;;;;;;6241726;23;20346;-70
2022/03/03 10:43:48;;;;;;;18.13;12.30;;;10.90;35.70;;;;;;6242791;22;20395;-69
2022/03/03 10:46:35;;;;;;;23.77;17.00;;;11.10;36.50;;;;;;6242464;23;20343;-69
2022/03/03 10:49:23;;;;;;;22.37;15.20;;;11.20;37.50;;;;;;6242761;23;20411;-69
2022/03/03 10:52:15;;;;;;;19.60;14.23;;;11.40;36.10;;;;;;6243139;23;20371;-70
2022/03/03 10:55:02;;;;;;;21.60;15.93;;;11.50;36.80;;;;;;6242176;23;20398;-70
2022/03/03 10:57:52;;;;;;;30.23;19.60;;;11.60;37.20;;;;;;6241040;23;20422;-70
2022/03/03 11:00:39;;;;;;;26.97;17.30;;;11.50;37.70;;;;;;6241753;23;20462;-70
2022/03/03 11:03:25;;;;;;;25.00;16.47;;;11.40;37.30;;;;;;6242723;23;20347;-70
2022/03/03 11:06:11;;;;;;;27.10;17.67;;;11.50;37.50;;;;;;6241021;23;20342;-70
2022/03/03 11:08:59;;;;;;;23.73;17.00;;;11.40;36.70;;;;;;6242289;23;20786;-69
2022/03/03 11:11:46;;;;;;;23.73;17.13;;;11.60;36.90;;;;;;6241817;23;20347;-70
2022/03/03 11:14:32;;;;;;;25.17;17.83;;;11.70;38.70;;;;;;6242539;23;20451;-70
2022/03/03 11:17:20;;;;;;;24.13;16.90;;;11.80;37.90;;;;;;6240861;23;20778;-70
2022/03/03 11:20:08;;;;;;;26.73;18.80;;;11.80;38.10;;;;;;6242424;23;20459;-70
2022/03/03 11:22:56;;;;;;;26.57;18.63;;;11.80;39.10;;;;;;6242665;23;20842;-68
2022/03/03 11:25:42;;;;;;;25.50;16.73;;;11.60;39.00;;;;;;6242905;23;20373;-69
2022/03/03 11:28:36;;;;;;;26.23;19.57;;;11.70;38.70;;;;;;6241470;23;20546;-70
2022/03/03 11:31:30;;;;;;;23.17;16.70;;;11.70;39.30;;;;;;6242523;23;20343;-69
2022/03/03 11:34:21;;;;;;;22.70;16.10;;;11.70;36.60;;;;;;6242255;23;20712;-69
2022/03/03 11:37:08;;;;;;;23.20;16.67;;;11.50;37.50;;;;;;6239454;23;20423;-69
2022/03/03 11:39:57;;;;;;;25.43;16.90;;;11.70;37.70;;;;;;6241682;23;20448;-68
2022/03/03 11:42:49;;;;;;;24.13;17.70;;;11.70;38.50;;;;;;6241353;23;20981;-70
2022/03/03 11:45:37;;;;;;;23.20;18.13;;;11.80;38.30;;;;;;6237889;23;20376;-69
2022/03/03 11:48:24;;;;;;;26.37;18.53;;;11.90;38.90;;;;;;6236357;23;20393;-70
2022/03/03 11:51:34;;;;;;;26.80;18.50;;;11.90;38.70;;;;;;6241583;23;20474;-70
2022/03/03 11:54:26;;;;;;;25.97;18.73;;;11.80;38.50;;;;;;6241416;23;20726;-69
2022/03/03 11:57:27;;;;;;;24.87;18.10;;;11.90;39.70;;;;;;6240949;23;20393;-69
2022/03/03 12:00:18;;;;;;;28.30;17.27;;;12.00;39.20;;;;;;6242389;23;20909;-70
2022/03/03 12:03:07;;;;;;;22.90;17.20;;;12.10;38.00;;;;;;6242751;23;20388;-69
2022/03/03 12:06:04;;;;;;;26.80;17.80;;;12.20;38.40;;;;;;6236313;23;20347;-69
2022/03/03 12:08:52;;;;;;;23.33;16.93;;;12.40;36.60;;;;;;6243458;23;20429;-70
2022/03/03 12:11:37;;;;;;;24.80;18.60;;;12.20;35.50;;;;;;6243132;23;20356;-70
2022/03/03 12:14:31;;;;;;;30.23;18.13;;;12.10;37.30;;;;;;6239872;23;20355;-70
2022/03/03 12:17:42;;;;;;;25.97;18.20;;;12.20;36.70;;;;;;6240993;23;20394;-70
2022/03/03 12:20:32;;;;;;;23.87;17.87;;;12.40;36.10;;;;;;6242288;23;20880;-70
2022/03/03 12:23:19;;;;;;;24.47;17.60;;;12.50;36.50;;;;;;6241720;23;20417;-69
2022/03/03 12:26:07;;;;;;;22.70;16.83;;;12.30;35.10;;;;;;6241171;23;20763;-69
2022/03/03 12:28:53;;;;;;;26.80;18.53;;;12.50;36.10;;;;;;6240883;23;20738;-69
2022/03/03 12:31:42;;;;;;;24.80;17.20;;;12.50;34.90;;;;;;6242965;23;20892;-69
2022/03/03 12:34:27;;;;;;;25.07;17.33;;;12.50;34.40;;;;;;6240904;23;20355;-70
2022/03/03 12:37:13;;;;;;;23.77;16.70;;;12.50;34.90;;;;;;6242799;23;21009;-70
2022/03/03 12:40:01;;;;;;;27.17;19.17;;;12.50;33.90;;;;;;6243339;23;20397;-69
2022/03/03 12:42:49;;;;;;;22.00;16.67;;;12.40;33.80;;;;;;6242842;23;20751;-70
2022/03/03 12:45:34;;;;;;;27.80;15.63;;;12.40;33.10;;;;;;6241029;23;20346;-70
2022/03/03 12:48:30;;;;;;;33.50;22.70;;;12.50;33.50;;;;;;6243173;23;20416;-70
2022/03/03 12:51:16;;;;;;;27.13;18.57;;;12.90;34.30;;;;;;6242339;23;20712;-69
2022/03/03 12:54:04;;;;;;;30.20;18.73;;;13.00;32.60;;;;;;6238937;23;20355;-70
2022/03/03 12:56:59;;;;;;;28.17;17.67;;;13.00;33.10;;;;;;6238745;23;20505;-71
2022/03/03 12:59:49;;;;;;;48.77;26.33;;;12.80;35.10;;;;;;6239960;23;20444;-71
2022/03/03 13:02:49;;;;;;;37.00;22.20;;;12.70;34.40;;;;;;6243620;23;20433;-71
2022/03/03 13:05:41;;;;;;;34.73;21.10;;;12.70;33.50;;;;;;6239609;23;20376;-70
2022/03/03 13:08:28;;;;;;;23.83;16.97;;;12.80;34.00;;;;;;6243324;23;20740;-71
2022/03/03 13:11:17;;;;;;;20.87;14.60;;;13.20;35.90;;;;;;6243734;23;20398;-70
2022/03/03 13:14:06;;;;;;;18.73;12.40;;;13.40;31.90;;;;;;6241436;23;20764;-71
2022/03/03 13:16:53;;;;;;;15.87;11.03;;;13.70;28.20;;;;;;6243377;23;20444;-71
2022/03/03 13:19:47;;;;;;;16.47;12.37;;;13.90;27.60;;;;;;6243454;23;20408;-71
2022/03/03 13:22:36;;;;;;;17.83;12.00;;;14.20;27.80;;;;;;6243769;23;20371;-71
2022/03/03 13:25:23;;;;;;;15.43;11.10;;;14.50;27.50;;;;;;6237596;23;20380;-71
2022/03/03 13:28:23;;;;;;;15.77;10.70;;;14.80;25.50;;;;;;6237400;23;20428;-71
2022/03/03 13:31:09;;;;;;;14.53;11.13;;;14.70;24.40;;;;;;6234422;23;20447;-71
2022/03/03 13:34:02;;;;;;;13.87;10.43;;;14.70;24.50;;;;;;6233017;23;20378;-71
2022/03/03 13:36:48;;;;;;;15.17;11.33;;;14.80;25.40;;;;;;6239550;23;20441;-71
2022/03/03 13:39:35;;;;;;;17.77;10.80;;;14.90;24.40;;;;;;6240465;23;20420;-70
2022/03/03 13:42:26;;;;;;;16.07;11.43;;;15.10;24.10;;;;;;6241064;23;20355;-69
2022/03/03 13:45:13;;;;;;;13.83;9.90;;;15.20;22.90;;;;;;6237848;23;20383;-70
2022/03/03 13:48:07;;;;;;;12.97;10.33;;;15.40;22.60;;;;;;6242570;23;20517;-70
2022/03/03 13:51:04;;;;;;;15.10;9.87;;;15.50;22.30;;;;;;6240874;23;20352;-70
2022/03/03 13:53:57;;;;;;;13.60;9.80;;;15.60;21.50;;;;;;6237494;23;20455;-70
2022/03/03 13:56:43;;;;;;;12.83;9.47;;;15.70;21.70;;;;;;6241378;23;20411;-69
2022/03/03 13:59:29;;;;;;;14.37;10.13;;;15.90;21.20;;;;;;6241254;23;20510;-70
2022/03/03 14:02:17;;;;;;;13.60;9.50;;;16.00;20.80;;;;;;6238978;23;21168;-71
2022/03/03 14:05:06;;;;;;;11.80;9.30;;;16.30;20.30;;;;;;6241613;22;20528;-67
2022/03/03 14:07:53;;;;;;;19.40;8.10;;;16.30;19.90;;;;;;6240099;23;20427;-68
2022/03/03 14:10:50;;;;;;;8.83;7.17;;;16.20;20.30;;;;;;6243034;23;20829;-68
2022/03/03 14:13:50;;;;;;;9.70;7.07;;;16.00;17.50;;;;;;6239592;23;20419;-67
2022/03/03 14:16:36;;;;;;;17.40;6.73;;;16.00;17.30;;;;;;6242281;22;20440;-69